Time;durP1;ratioP1;P1;durP2;ratioP2;P2;SDS_P1;SDS_P2;PMS_P1;PMS_P2;Temp;Humidity;BMP_temperature;BMP_pressure;BME280_temperature;BME280_humidity;BME280_pressure;Samples;Min_cycle;Max_cycle;Signal;HPM_P1;HPM_P2
2023/04/25 00:00:11;;;;;;;;;;;11.70;89.40;;;;;;6127762;23;20036;-96
2023/04/25 00:02:37;;;;;;;;;;;11.70;90.00;;;;;;6127421;23;20398;-96
2023/04/25 00:05:03;;;;;;;;;;;11.80;89.70;;;;;;6127814;23;19916;-96
2023/04/25 00:07:28;;;;;;;;;;;11.90;89.50;;;;;;6127944;23;20395;-96
2023/04/25 00:09:54;;;;;;;;;;;12.00;89.20;;;;;;6129683;23;19912;-96
2023/04/25 00:12:21;;;;;;;;;;;12.00;88.80;;;;;;6127628;23;19912;-96
2023/04/25 00:14:49;;;;;;;;;;;11.90;88.90;;;;;;6129277;23;19912;-96
2023/04/25 00:17:16;;;;;;;;;;;11.90;89.10;;;;;;6127693;23;20337;-96
2023/04/25 00:19:42;;;;;;;;;;;11.90;89.50;;;;;;6127867;23;19912;-96
2023/04/25 00:22:08;;;;;;;;;;;12.00;89.40;;;;;;6127374;23;19912;-96
2023/04/25 00:24:33;;;;;;;;;;;12.00;89.40;;;;;;6127843;23;19905;-96
2023/04/25 00:26:59;;;;;;;;;;;11.90;89.50;;;;;;6127221;23;19905;-96
2023/04/25 00:29:25;;;;;;;;;;;11.90;89.50;;;;;;6128192;23;19905;-96
2023/04/25 00:31:53;;;;;;;;;;;11.90;89.40;;;;;;6127481;23;19908;-96
2023/04/25 00:34:19;;;;;;;;;;;11.80;89.50;;;;;;6127171;23;20311;-96
2023/04/25 00:36:45;;;;;;;;;;;11.80;89.20;;;;;;6126637;23;19944;-96
2023/04/25 00:39:11;;;;;;;;;;;11.80;89.10;;;;;;6102791;23;19915;-96
2023/04/25 00:41:37;;;;;;;;;;;11.80;89.00;;;;;;6102917;23;19905;-96
2023/04/25 00:44:04;;;;;;;;;;;11.70;89.10;;;;;;6104020;23;19909;-96
2023/04/25 00:46:30;;;;;;;;;;;11.70;89.40;;;;;;6130658;23;19905;-96
2023/04/25 00:48:56;;;;;;;;;;;11.70;89.60;;;;;;6103783;23;19932;-96
2023/04/25 00:51:22;;;;;;;;;;;11.70;89.60;;;;;;6103722;23;19911;-96
2023/04/25 00:53:49;;;;;;;;;;;11.80;89.70;;;;;;6103154;23;19912;-96
2023/04/25 00:56:15;;;;;;;;;;;11.80;89.40;;;;;;6128787;23;19905;-96
2023/04/25 00:58:42;;;;;;;;;;;11.80;89.70;;;;;;6102826;23;20003;-96
2023/04/25 01:01:08;;;;;;;;;;;11.90;89.70;;;;;;6102669;23;19905;-96
2023/04/25 01:03:35;;;;;;;;;;;11.90;89.10;;;;;;6102788;23;19920;-96
2023/04/25 01:06:01;;;;;;;;;;;11.90;88.80;;;;;;6128764;23;20342;-96
2023/04/25 01:08:27;;;;;;;;;;;11.80;89.10;;;;;;6128504;23;19924;-96
2023/04/25 01:10:53;;;;;;;;;;;11.80;89.00;;;;;;6128834;23;19909;-96
2023/04/25 01:13:19;;;;;;;;;;;11.80;88.70;;;;;;6102435;23;19915;-96
2023/04/25 01:15:45;;;;;;;;;;;11.70;89.00;;;;;;6102237;23;19905;-96
2023/04/25 01:18:12;;;;;;;;;;;11.60;89.70;;;;;;6101786;23;19955;-96
2023/04/25 01:20:38;;;;;;;;;;;11.60;90.10;;;;;;6101649;23;19912;-96
2023/04/25 01:23:04;;;;;;;;;;;11.60;90.40;;;;;;6101511;23;19912;-96
2023/04/25 01:25:30;;;;;;;;;;;11.60;90.50;;;;;;6101948;23;19905;-96
2023/04/25 01:27:56;;;;;;;;;;;11.70;90.30;;;;;;6127549;23;19905;-96
2023/04/25 01:30:22;;;;;;;;;;;11.80;90.00;;;;;;6101734;23;19905;-96
2023/04/25 01:32:48;;;;;;;;;;;11.80;89.80;;;;;;6101526;23;19971;-96
2023/04/25 01:35:13;;;;;;;;;;;11.80;89.70;;;;;;6101440;23;19925;-96
2023/04/25 01:37:40;;;;;;;;;;;11.90;89.50;;;;;;6127414;23;20000;-96
2023/04/25 01:40:06;;;;;;;;;;;11.90;89.30;;;;;;6127519;23;19905;-96
2023/04/25 01:42:33;;;;;;;;;;;11.90;89.10;;;;;;6101358;23;19987;-96
2023/04/25 01:44:58;;;;;;;;;;;11.80;89.10;;;;;;6101415;23;19909;-96
2023/04/25 01:47:24;;;;;;;;;;;11.70;89.50;;;;;;6101435;23;20283;-95
2023/04/25 01:49:50;;;;;;;;;;;11.60;89.50;;;;;;6101464;23;19988;-96
2023/04/25 01:52:15;;;;;;;;;;;11.60;89.50;;;;;;6101411;23;19905;-96
2023/04/25 01:54:44;;;;;;;;;;;11.50;89.70;;;;;;6103282;23;19912;-96
2023/04/25 01:57:10;;;;;;;;;;;11.40;89.80;;;;;;6103224;23;20324;-96
2023/04/25 01:59:36;;;;;;;;;;;11.40;89.80;;;;;;6103455;23;19943;-96
2023/04/25 02:02:03;;;;;;;;;;;11.50;89.70;;;;;;6129592;23;20303;-96
2023/04/25 02:04:29;;;;;;;;;;;11.50;89.70;;;;;;6129488;23;19980;-96
2023/04/25 02:06:55;;;;;;;;;;;11.50;89.70;;;;;;6129605;23;19912;-96
2023/04/25 02:09:20;;;;;;;;;;;11.50;89.60;;;;;;6129584;23;19905;-96
2023/04/25 02:11:46;;;;;;;;;;;11.60;89.60;;;;;;6103184;23;19927;-96
2023/04/25 02:14:12;;;;;;;;;;;11.70;89.70;;;;;;6129437;23;19932;-96
2023/04/25 02:16:39;;;;;;;;;;;11.60;89.60;;;;;;6129190;23;19909;-96
2023/04/25 02:19:05;;;;;;;;;;;11.60;89.30;;;;;;6103199;23;20315;-96
2023/04/25 02:21:31;;;;;;;;;;;11.60;89.00;;;;;;6103244;23;19912;-96
2023/04/25 02:23:57;;;;;;;;;;;11.50;89.20;;;;;;6129246;23;19928;-96
2023/04/25 02:26:23;;;;;;;;;;;11.50;89.60;;;;;;6103128;23;19992;-96
2023/04/25 02:28:49;;;;;;;;;;;11.60;89.80;;;;;;6102840;23;19905;-96
2023/04/25 02:31:15;;;;;;;;;;;11.60;89.80;;;;;;6102787;23;19905;-96
2023/04/25 02:33:41;;;;;;;;;;;11.60;89.60;;;;;;6129325;23;19959;-96
2023/04/25 02:36:06;;;;;;;;;;;11.60;89.60;;;;;;6128667;23;19927;-94
2023/04/25 02:38:32;;;;;;;;;;;11.60;89.70;;;;;;6119693;23;19924;-95
2023/04/25 02:40:58;;;;;;;;;;;11.60;89.50;;;;;;6126978;23;19905;-96
2023/04/25 02:43:23;;;;;;;;;;;11.70;89.50;;;;;;6129046;23;19988;-96
2023/04/25 02:45:49;;;;;;;;;;;11.70;89.60;;;;;;6127123;23;20231;-96
2023/04/25 02:48:14;;;;;;;;;;;11.80;89.60;;;;;;6128933;23;19905;-96
2023/04/25 02:50:40;;;;;;;;;;;11.80;89.90;;;;;;6128974;23;19960;-96
2023/04/25 02:53:06;;;;;;;;;;;11.80;90.60;;;;;;6127021;23;20239;-96
2023/04/25 02:55:31;;;;;;;;;;;11.80;90.30;;;;;;6128868;23;19932;-95
2023/04/25 02:57:57;;;;;;;;;;;11.80;90.20;;;;;;6127126;23;19916;-96
2023/04/25 03:00:23;;;;;;;;;;;11.90;90.10;;;;;;6126997;23;19984;-96
2023/04/25 03:02:48;;;;;;;;;;;11.80;90.30;;;;;;6128805;23;20204;-96
2023/04/25 03:05:14;;;;;;;;;;;11.80;90.20;;;;;;6128267;23;19905;-95
2023/04/25 03:07:39;;;;;;;;;;;11.80;90.40;;;;;;6129139;23;20291;-96
2023/04/25 03:10:08;;;;;;;;;;;11.80;90.70;;;;;;6128329;23;19905;-96
2023/04/25 03:12:33;;;;;;;;;;;11.80;90.40;;;;;;6127017;23;19961;-96
2023/04/25 03:14:59;;;;;;;;;;;11.80;90.50;;;;;;6127207;23;20212;-96
2023/04/25 03:17:24;;;;;;;;;;;11.80;90.40;;;;;;6126855;23;19915;-96
2023/04/25 03:19:50;;;;;;;;;;;11.80;90.60;;;;;;6127355;23;19941;-96
2023/04/25 03:22:16;;;;;;;;;;;11.70;90.70;;;;;;6128282;23;20242;-96
2023/04/25 03:24:41;;;;;;;;;;;11.70;91.10;;;;;;6129012;23;19912;-96
2023/04/25 03:27:07;;;;;;;;;;;11.70;91.10;;;;;;6128171;23;19959;-96
2023/04/25 03:29:32;;;;;;;;;;;11.70;91.60;;;;;;6126649;23;20225;-96
2023/04/25 03:31:58;;;;;;;;;;;11.80;91.30;;;;;;6126684;23;19955;-96
2023/04/25 03:34:23;;;;;;;;;;;11.80;90.90;;;;;;6128456;23;19956;-96
2023/04/25 03:36:49;;;;;;;;;;;11.80;90.70;;;;;;6126202;23;19915;-96
2023/04/25 03:39:15;;;;;;;;;;;11.80;90.60;;;;;;6102066;23;19909;-96
2023/04/25 03:41:41;;;;;;;;;;;11.80;90.60;;;;;;6101997;23;19932;-95
2023/04/25 03:44:06;;;;;;;;;;;11.70;90.70;;;;;;6128709;23;19928;-96
2023/04/25 03:46:32;;;;;;;;;;;11.80;90.70;;;;;;6101916;23;20354;-95
2023/04/25 03:48:59;;;;;;;;;;;11.80;90.40;;;;;;6128244;23;20212;-96
2023/04/25 03:51:25;;;;;;;;;;;11.80;90.50;;;;;;6127943;23;19937;-96
2023/04/25 03:53:51;;;;;;;;;;;11.80;90.60;;;;;;6128118;23;19939;-96
2023/04/25 03:56:17;;;;;;;;;;;11.80;90.60;;;;;;6128230;23;19905;-94
2023/04/25 03:58:42;;;;;;;;;;;11.90;90.70;;;;;;6101787;23;20331;-95
2023/04/25 04:01:08;;;;;;;;;;;11.90;90.30;;;;;;6128184;23;19905;-96
2023/04/25 04:03:35;;;;;;;;;;;11.80;90.20;;;;;;6127806;23;19905;-96
2023/04/25 04:06:01;;;;;;;;;;;11.90;90.00;;;;;;6128155;23;19979;-95
2023/04/25 04:08:27;;;;;;;;;;;11.90;89.90;;;;;;6101826;23;19912;-95
2023/04/25 04:10:52;;;;;;;;;;;11.90;89.90;;;;;;6128078;23;20388;-93
2023/04/25 04:13:18;;;;;;;;;;;11.90;90.20;;;;;;6101604;23;19912;-93
2023/04/25 04:15:43;;;;;;;;;;;11.90;90.10;;;;;;6101334;23;19912;-94
2023/04/25 04:18:09;;;;;;;;;;;11.90;90.20;;;;;;6127973;23;19909;-93
2023/04/25 04:20:35;;;;;;;;;;;11.90;90.30;;;;;;6127570;23;20327;-94
2023/04/25 04:23:01;;;;;;;;;;;11.90;90.50;;;;;;6101546;23;19912;-93
2023/04/25 04:25:27;;;;;;;;;;;11.90;90.10;;;;;;6127704;23;19905;-94
2023/04/25 04:27:54;;;;;;;;;;;11.80;89.80;;;;;;6127949;23;20421;-95
2023/04/25 04:30:29;;;;;;;;;;;11.70;90.30;;;;;;6127559;23;20276;-96
2023/04/25 04:32:55;;;;;;;;;;;11.70;90.60;;;;;;6101695;23;19905;-96
2023/04/25 04:35:21;;;;;;;;;;;11.70;90.70;;;;;;6101568;23;19979;-95
2023/04/25 04:37:47;;;;;;;;;;;11.70;91.00;;;;;;6128251;23;19921;-96
2023/04/25 04:40:15;;;;;;;;;;;11.70;91.10;;;;;;6101645;23;19915;-96
2023/04/25 04:42:45;;;;;;;;;;;11.70;91.20;;;;;;6127729;23;19976;-93
2023/04/25 04:45:11;;;;;;;;;;;11.70;91.30;;;;;;6127404;23;19905;-95
2023/04/25 04:47:37;;;;;;;;;;;11.60;91.20;;;;;;6101390;23;19983;-95
2023/04/25 04:50:03;;;;;;;;;;;11.70;91.40;;;;;;6101502;23;19912;-96
2023/04/25 04:52:29;;;;;;;;;;;11.70;91.70;;;;;;6101402;23;19937;-94
2023/04/25 04:54:55;;;;;;;;;;;11.70;91.80;;;;;;6128423;23;19956;-96
2023/04/25 04:57:21;;;;;;;;;;;11.60;92.40;;;;;;6101839;23;20296;-94
2023/04/25 04:59:46;;;;;;;;;;;11.60;92.80;;;;;;6127694;23;19905;-96
2023/04/25 05:02:12;;;;;;;;;;;11.50;92.80;;;;;;6101286;23;20220;-93
2023/04/25 05:04:37;;;;;;;;;;;11.50;93.00;;;;;;6127885;23;19905;-94
2023/04/25 05:07:03;;;;;;;;;;;11.50;93.10;;;;;;6127184;23;19909;-93
2023/04/25 05:09:28;;;;;;;;;;;11.50;93.00;;;;;;6127313;23;19905;-94
2023/04/25 05:11:54;;;;;;;;;;;11.40;92.90;;;;;;6127859;23;19911;-94
2023/04/25 05:14:21;;;;;;;;;;;11.40;92.90;;;;;;6101166;23;19913;-94
2023/04/25 05:16:47;;;;;;;;;;;11.40;92.90;;;;;;6127331;23;20308;-94
2023/04/25 05:19:12;;;;;;;;;;;11.50;92.90;;;;;;6101183;23;19912;-93
2023/04/25 05:21:38;;;;;;;;;;;11.60;92.90;;;;;;6127477;23;19989;-93
2023/04/25 05:24:04;;;;;;;;;;;11.60;93.00;;;;;;6127416;23;19905;-93
2023/04/25 05:26:30;;;;;;;;;;;11.60;93.10;;;;;;6127687;23;19905;-94
2023/04/25 05:28:59;;;;;;;;;;;11.60;93.70;;;;;;6127081;23;19905;-94
2023/04/25 05:31:25;;;;;;;;;;;11.60;93.80;;;;;;6101156;23;19905;-96
2023/04/25 05:33:51;;;;;;;;;;;11.60;93.60;;;;;;6101119;23;19909;-96
2023/04/25 05:36:17;;;;;;;;;;;11.60;93.60;;;;;;6127355;23;19988;-95
2023/04/25 05:38:42;;;;;;;;;;;11.50;93.70;;;;;;6126774;23;19991;-96
2023/04/25 05:41:08;;;;;;;;;;;11.50;93.80;;;;;;6101046;23;19959;-95
2023/04/25 05:43:34;;;;;;;;;;;11.50;94.00;;;;;;6127370;23;19905;-95
2023/04/25 05:45:59;;;;;;;;;;;11.60;94.00;;;;;;6127009;23;20223;-95
2023/04/25 05:48:25;;;;;;;;;;;11.70;93.90;;;;;;6101115;23;19937;-95
2023/04/25 05:50:51;;;;;;;;;;;11.70;93.80;;;;;;6127706;23;19909;-96
2023/04/25 05:53:17;;;;;;;;;;;11.70;93.90;;;;;;6100980;23;19955;-95
2023/04/25 05:55:43;;;;;;;;;;;11.80;93.80;;;;;;6127649;23;19936;-96
2023/04/25 05:58:08;;;;;;;;;;;11.80;93.80;;;;;;6127306;23;19912;-96
2023/04/25 06:00:34;;;;;;;;;;;11.80;93.80;;;;;;6127588;23;20224;-96
2023/04/25 06:02:59;;;;;;;;;;;11.90;93.60;;;;;;6101220;23;20240;-96
2023/04/25 06:05:25;;;;;;;;;;;12.00;93.30;;;;;;6127408;23;19905;-95
2023/04/25 06:07:51;;;;;;;;;;;12.10;93.20;;;;;;6127794;23;19909;-96
2023/04/25 06:10:16;;;;;;;;;;;12.20;93.10;;;;;;6126915;23;19905;-96
2023/04/25 06:12:42;;;;;;;;;;;12.20;93.20;;;;;;6127174;23;19911;-96
2023/04/25 06:15:07;;;;;;;;;;;12.30;93.20;;;;;;6100984;23;19912;-96
2023/04/25 06:17:33;;;;;;;;;;;12.40;93.10;;;;;;6127489;23;19941;-96
2023/04/25 06:19:59;;;;;;;;;;;12.50;92.60;;;;;;6101061;23;19956;-96
2023/04/25 06:22:24;;;;;;;;;;;12.60;92.10;;;;;;6100940;23;19979;-96
2023/04/25 06:24:50;;;;;;;;;;;12.60;91.60;;;;;;6127182;23;19956;-96
2023/04/25 06:27:15;;;;;;;;;;;12.60;91.20;;;;;;6126875;23;20246;-95
2023/04/25 06:29:41;;;;;;;;;;;12.50;90.90;;;;;;6127145;23;20294;-96
2023/04/25 06:32:06;;;;;;;;;;;12.40;90.80;;;;;;6126664;23;19975;-96
2023/04/25 06:34:32;;;;;;;;;;;12.40;91.30;;;;;;6126892;23;19980;-95
2023/04/25 06:36:57;;;;;;;;;;;12.20;92.00;;;;;;6129872;23;19952;-95
2023/04/25 06:39:25;;;;;;;;;;;12.20;92.10;;;;;;6156855;23;20227;-95
2023/04/25 06:41:50;;;;;;;;;;;12.10;92.20;;;;;;6158053;23;19904;-94
2023/04/25 06:44:16;;;;;;;;;;;12.00;92.30;;;;;;6158384;23;20233;-96
2023/04/25 06:46:42;;;;;;;;;;;12.00;93.10;;;;;;6158014;23;19904;-95
2023/04/25 06:49:07;;;;;;;;;;;12.10;92.90;;;;;;6158304;23;19911;-96
2023/04/25 06:51:33;;;;;;;;;;;12.20;92.80;;;;;;6157950;23;20294;-96
2023/04/25 06:53:58;;;;;;;;;;;12.30;92.60;;;;;;6158635;23;20040;-95
2023/04/25 06:56:24;;;;;;;;;;;12.30;92.40;;;;;;6157898;23;19904;-95
2023/04/25 06:58:50;;;;;;;;;;;12.20;92.30;;;;;;6131679;23;19915;-95
2023/04/25 07:01:15;;;;;;;;;;;12.10;92.20;;;;;;6158145;23;19911;-96
2023/04/25 07:03:41;;;;;;;;;;;12.00;92.20;;;;;;6158198;23;20259;-94
2023/04/25 07:06:07;;;;;;;;;;;11.90;92.40;;;;;;6131626;23;19904;-94
2023/04/25 07:08:32;;;;;;;;;;;11.80;92.60;;;;;;6131720;23;19973;-94
2023/04/25 07:10:58;;;;;;;;;;;11.70;92.80;;;;;;6158058;23;20235;-93
2023/04/25 07:13:23;;;;;;;;;;;11.60;93.00;;;;;;6157750;23;20251;-95
2023/04/25 07:15:49;;;;;;;;;;;11.60;93.20;;;;;;6158045;23;19905;-94
2023/04/25 07:18:15;;;;;;;;;;;11.60;93.40;;;;;;6131512;23;19912;-94
2023/04/25 07:20:40;;;;;;;;;;;11.50;93.40;;;;;;6158337;23;19904;-94
2023/04/25 07:23:06;;;;;;;;;;;11.50;93.60;;;;;;6131562;23;19936;-93
2023/04/25 07:25:32;;;;;;;;;;;11.50;93.50;;;;;;6158332;23;19912;-94
2023/04/25 07:27:57;;;;;;;;;;;11.50;93.60;;;;;;6157555;23;19909;-94
2023/04/25 07:30:23;;;;;;;;;;;11.40;93.40;;;;;;6157928;23;20327;-94
2023/04/25 07:32:49;;;;;;;;;;;11.50;93.40;;;;;;6157462;23;20274;-94
2023/04/25 07:35:15;;;;;;;;;;;11.40;93.10;;;;;;6157872;23;19904;-94
2023/04/25 07:37:41;;;;;;;;;;;11.40;92.90;;;;;;6157280;23;19917;-94
2023/04/25 07:40:07;;;;;;;;;;;11.40;92.80;;;;;;6157462;23;19912;-94
2023/04/25 07:42:33;;;;;;;;;;;11.40;92.70;;;;;;6131309;23;19936;-93
2023/04/25 07:44:58;;;;;;;;;;;11.50;92.60;;;;;;6157822;23;19927;-94
2023/04/25 07:47:24;;;;;;;;;;;11.50;92.70;;;;;;6157760;23;19911;-94
2023/04/25 07:49:50;;;;;;;;;;;11.40;92.90;;;;;;6157611;23;19939;-94
2023/04/25 07:52:15;;;;;;;;;;;11.50;93.00;;;;;;6157291;23;19905;-94
2023/04/25 07:54:41;;;;;;;;;;;11.60;92.90;;;;;;6157555;23;19905;-95
2023/04/25 07:57:07;;;;;;;;;;;11.60;93.40;;;;;;6157589;23;20326;-94
2023/04/25 07:59:32;;;;;;;;;;;11.50;93.50;;;;;;6157291;23;19904;-94
2023/04/25 08:02:01;;;;;;;;;;;11.60;93.40;;;;;;6157238;23;19905;-94
2023/04/25 08:04:26;;;;;;;;;;;11.60;93.30;;;;;;6157369;23;19912;-94
2023/04/25 08:06:53;;;;;;;;;;;11.60;93.50;;;;;;6157619;23;19905;-95
2023/04/25 08:09:19;;;;;;;;;;;11.60;93.70;;;;;;6157564;23;19904;-95
2023/04/25 08:11:45;;;;;;;;;;;11.70;93.60;;;;;;6157528;23;19936;-95
2023/04/25 08:14:11;;;;;;;;;;;11.60;93.10;;;;;;6157127;23;19904;-93
2023/04/25 08:16:36;;;;;;;;;;;11.60;93.20;;;;;;6157806;23;19956;-94
2023/04/25 08:19:02;;;;;;;;;;;11.60;93.40;;;;;;6157348;23;19908;-93
2023/04/25 08:21:28;;;;;;;;;;;11.70;93.40;;;;;;6157753;23;19911;-94
2023/04/25 08:23:53;;;;;;;;;;;11.70;93.40;;;;;;6157011;23;19909;-93
2023/04/25 08:26:19;;;;;;;;;;;11.80;93.40;;;;;;6157346;23;19905;-94
2023/04/25 08:28:44;;;;;;;;;;;11.70;93.40;;;;;;6156974;23;19905;-93
2023/04/25 08:31:10;;;;;;;;;;;11.80;93.60;;;;;;6157005;23;20238;-94
2023/04/25 08:33:36;;;;;;;;;;;11.70;93.80;;;;;;6157156;23;19911;-94
2023/04/25 08:36:01;;;;;;;;;;;11.80;93.80;;;;;;6157269;23;19928;-94
2023/04/25 08:38:27;;;;;;;;;;;11.80;93.60;;;;;;6156736;23;19916;-93
2023/04/25 08:40:53;;;;;;;;;;;11.80;93.10;;;;;;6156872;23;20331;-94
2023/04/25 08:43:20;;;;;;;;;;;11.80;93.10;;;;;;6157612;23;19912;-94
2023/04/25 08:45:45;;;;;;;;;;;11.90;92.90;;;;;;6157169;23;19912;-94
2023/04/25 08:48:15;;;;;;;;;;;11.90;92.20;;;;;;6130711;23;19905;-93
2023/04/25 08:50:47;;;;;;;;;;;12.00;92.20;;;;;;6130717;23;19932;-94
2023/04/25 08:53:17;;;;;;;;;;;12.00;91.30;;;;;;6157494;23;19955;-95
2023/04/25 08:55:43;;;;;;;;;;;12.00;90.40;;;;;;6156753;23;19905;-94
2023/04/25 08:58:10;;;;;;;;;;;12.10;90.30;;;;;;6157039;23;20342;-94
2023/04/25 09:00:36;;;;;;;;;;;12.30;89.70;;;;;;6130607;23;19905;-93
2023/04/25 09:03:01;;;;;;;;;;;12.40;88.70;;;;;;6130452;23;19984;-95
2023/04/25 09:05:28;;;;;;;;;;;12.50;87.90;;;;;;6157051;23;19908;-94
2023/04/25 09:07:54;;;;;;;;;;;12.60;87.90;;;;;;6156664;23;19975;-95
2023/04/25 09:10:19;;;;;;;;;;;12.70;88.90;;;;;;6156998;23;20235;-94
2023/04/25 09:13:01;;;;;;;;;;;12.50;88.60;;;;;;6130427;23;19905;-95
2023/04/25 09:15:26;;;;;;;;;;;12.40;89.50;;;;;;6157352;23;20322;-94
2023/04/25 09:17:58;;;;;;;;;;;12.40;89.30;;;;;;6156498;23;19908;-95
2023/04/25 09:20:24;;;;;;;;;;;12.40;86.70;;;;;;6156884;23;19959;-94
2023/04/25 09:23:01;;;;;;;;;;;12.50;87.00;;;;;;6156578;23;19940;-94
2023/04/25 09:25:26;;;;;;;;;;;12.60;87.20;;;;;;6157223;23;19956;-94
2023/04/25 09:27:53;;;;;;;;;;;12.80;86.70;;;;;;6156571;23;19904;-96
2023/04/25 09:30:18;;;;;;;;;;;12.90;84.30;;;;;;6130325;23;19919;-96
2023/04/25 09:32:45;;;;;;;;;;;13.10;82.40;;;;;;6156800;23;19938;-95
2023/04/25 09:35:11;;;;;;;;;;;13.30;82.30;;;;;;6156542;23;19909;-96
2023/04/25 09:37:37;;;;;;;;;;;13.70;82.80;;;;;;6156525;23;19923;-95
2023/04/25 09:40:05;;;;;;;;;;;13.80;80.30;;;;;;6130221;23;19983;-95
2023/04/25 09:42:31;;;;;;;;;;;14.10;81.70;;;;;;6157197;23;19940;-96
2023/04/25 09:44:57;;;;;;;;;;;14.20;81.30;;;;;;6156436;23;19988;-95
2023/04/25 09:47:24;;;;;;;;;;;14.40;81.20;;;;;;6156533;23;19911;-95
2023/04/25 09:49:50;;;;;;;;;;;14.40;80.70;;;;;;6157111;23;20219;-95
2023/04/25 09:52:17;;;;;;;;;;;14.40;78.50;;;;;;6156400;23;19979;-96
2023/04/25 09:54:44;;;;;;;;;;;14.70;79.90;;;;;;6130357;23;19905;-96
2023/04/25 09:57:10;;;;;;;;;;;14.90;79.20;;;;;;6156712;23;20368;-96
2023/04/25 09:59:38;;;;;;;;;;;14.90;77.50;;;;;;6156724;23;19905;-96
2023/04/25 10:02:03;;;;;;;;;;;15.10;78.10;;;;;;6157033;23;20408;-94
2023/04/25 10:04:30;;;;;;;;;;;15.10;78.00;;;;;;6156705;23;19909;-95
2023/04/25 10:06:57;;;;;;;;;;;14.90;76.30;;;;;;6157101;23;19904;-95
2023/04/25 10:09:25;;;;;;;;;;;15.00;77.60;;;;;;6156367;23;19905;-95
2023/04/25 10:11:51;;;;;;;;;;;15.00;76.40;;;;;;6157012;23;19904;-95
2023/04/25 10:14:16;;;;;;;;;;;15.00;79.00;;;;;;6130782;23;19932;-95
2023/04/25 10:16:42;;;;;;;;;;;15.10;79.60;;;;;;6132031;23;19932;-96
2023/04/25 10:19:09;;;;;;;;;;;15.20;78.50;;;;;;6132125;23;20275;-95
2023/04/25 10:21:37;;;;;;;;;;;15.40;78.90;;;;;;6158517;23;19909;-95
2023/04/25 10:24:03;;;;;;;;;;;15.60;80.30;;;;;;6158204;23;19991;-95
2023/04/25 10:26:29;;;;;;;;;;;15.80;78.80;;;;;;6158447;23;19944;-95
2023/04/25 10:29:03;;;;;;;;;;;16.10;79.40;;;;;;6158482;23;19915;-95
2023/04/25 10:31:30;;;;;;;;;;;16.00;78.10;;;;;;6132020;23;19952;-95
2023/04/25 10:33:56;;;;;;;;;;;16.20;79.50;;;;;;6158675;23;20196;-95
2023/04/25 10:36:22;;;;;;;;;;;16.20;78.40;;;;;;6158112;23;19905;-96
2023/04/25 10:38:50;;;;;;;;;;;16.30;76.90;;;;;;6126680;23;19939;-95
2023/04/25 10:41:18;;;;;;;;;;;16.30;76.10;;;;;;6128468;23;19912;-95
2023/04/25 10:43:45;;;;;;;;;;;16.40;76.50;;;;;;6129319;23;19956;-95
2023/04/25 10:46:16;;;;;;;;;;;16.50;75.80;;;;;;6128489;23;19976;-95
2023/04/25 10:48:47;;;;;;;;;;;16.60;76.80;;;;;;6129218;23;19936;-95
2023/04/25 10:51:19;;;;;;;;;;;16.60;75.40;;;;;;6128813;23;19958;-95
2023/04/25 10:54:05;;;;;;;;;;;16.50;75.30;;;;;;6128793;23;19905;-95
2023/04/25 10:56:31;;;;;;;;;;;16.40;75.50;;;;;;6127649;23;19936;-96
2023/04/25 10:59:10;;;;;;;;;;;16.40;75.80;;;;;;6128661;23;20350;-96
2023/04/25 11:01:36;;;;;;;;;;;16.50;75.90;;;;;;6128364;23;19905;-96
2023/04/25 11:04:02;;;;;;;;;;;16.60;76.60;;;;;;6129073;23;19905;-95
2023/04/25 11:06:46;;;;;;;;;;;16.70;75.50;;;;;;6128299;23;19912;-96
2023/04/25 11:09:15;;;;;;;;;;;16.80;74.50;;;;;;6128951;23;19905;-96
2023/04/25 11:11:41;;;;;;;;;;;16.90;73.70;;;;;;6128289;23;19936;-96
2023/04/25 11:14:06;;;;;;;;;;;17.00;71.00;;;;;;6128615;23;19905;-95
2023/04/25 11:16:32;;;;;;;;;;;17.00;72.50;;;;;;6128209;23;19905;-96
2023/04/25 11:18:58;;;;;;;;;;;17.10;73.40;;;;;;6128541;23;19908;-96
2023/04/25 11:21:26;;;;;;;;;;;17.10;71.20;;;;;;6128272;23;19905;-96
2023/04/25 11:23:51;;;;;;;;;;;17.20;71.30;;;;;;6128559;23;20318;-96
2023/04/25 11:26:19;;;;;;;;;;;17.30;68.80;;;;;;6128074;23;19905;-95
2023/04/25 11:28:45;;;;;;;;;;;17.20;66.80;;;;;;6128822;23;19980;-95
2023/04/25 11:31:10;;;;;;;;;;;17.20;70.90;;;;;;6128404;23;19905;-95
2023/04/25 11:33:36;;;;;;;;;;;17.40;70.00;;;;;;6128163;23;19905;-96
2023/04/25 11:36:02;;;;;;;;;;;17.50;67.60;;;;;;6128470;23;19905;-95
2023/04/25 11:38:27;;;;;;;;;;;17.70;65.40;;;;;;6144951;23;19920;-96
2023/04/25 11:40:53;;;;;;;;;;;17.80;65.60;;;;;;6157408;23;20231;-96
2023/04/25 11:43:22;;;;;;;;;;;17.70;66.10;;;;;;6158141;23;19905;-96
2023/04/25 11:45:50;;;;;;;;;;;17.80;67.50;;;;;;6157443;23;19905;-96
2023/04/25 11:48:16;;;;;;;;;;;17.80;65.80;;;;;;6158061;23;19904;-95
2023/04/25 11:50:42;;;;;;;;;;;17.80;66.50;;;;;;6157705;23;19905;-95
2023/04/25 11:53:08;;;;;;;;;;;17.90;65.70;;;;;;6157768;23;19932;-96
2023/04/25 11:55:34;;;;;;;;;;;17.80;63.80;;;;;;6157707;23;20323;-95
2023/04/25 11:58:00;;;;;;;;;;;17.60;64.10;;;;;;6131156;23;19909;-95
2023/04/25 12:00:26;;;;;;;;;;;17.40;64.40;;;;;;6157587;23;19912;-96
2023/04/25 12:02:55;;;;;;;;;;;17.60;63.80;;;;;;6131157;23;19913;-94
2023/04/25 12:05:23;;;;;;;;;;;17.40;64.20;;;;;;6157575;23;19943;-95
2023/04/25 12:07:49;;;;;;;;;;;17.50;67.30;;;;;;6157228;23;19904;-95
2023/04/25 12:10:15;;;;;;;;;;;17.60;66.70;;;;;;6157596;23;20207;-96
2023/04/25 12:12:44;;;;;;;;;;;17.70;65.20;;;;;;6157156;23;19912;-95
2023/04/25 12:15:19;;;;;;;;;;;17.80;66.10;;;;;;6157869;23;19904;-96
2023/04/25 12:17:45;;;;;;;;;;;17.80;60.90;;;;;;6157390;23;19912;-95
2023/04/25 12:20:13;;;;;;;;;;;17.90;61.50;;;;;;6157438;23;19927;-96
2023/04/25 12:22:40;;;;;;;;;;;18.00;61.50;;;;;;6157446;23;20323;-95
2023/04/25 12:25:07;;;;;;;;;;;17.80;62.20;;;;;;6131106;23;19955;-96
2023/04/25 12:27:33;;;;;;;;;;;17.80;60.90;;;;;;6158366;23;20315;-96
2023/04/25 12:29:59;;;;;;;;;;;17.90;61.00;;;;;;6157527;23;19998;-96
2023/04/25 12:32:26;;;;;;;;;;;18.10;61.20;;;;;;6157105;23;20277;-96
2023/04/25 12:34:51;;;;;;;;;;;18.40;61.90;;;;;;6157027;23;19916;-96
2023/04/25 12:37:17;;;;;;;;;;;18.80;61.90;;;;;;6130317;23;19909;-96
2023/04/25 12:39:42;;;;;;;;;;;19.30;58.80;;;;;;6157010;23;20216;-96
2023/04/25 12:42:11;;;;;;;;;;;19.70;55.00;;;;;;6156912;23;19987;-96
2023/04/25 12:44:37;;;;;;;;;;;19.70;55.70;;;;;;6130783;23;20315;-96
2023/04/25 12:47:03;;;;;;;;;;;19.70;55.50;;;;;;6157176;23;19928;-96
2023/04/25 12:49:28;;;;;;;;;;;19.00;57.50;;;;;;6130714;23;20263;-96
2023/04/25 12:51:54;;;;;;;;;;;18.60;59.80;;;;;;6157227;23;19916;-96
2023/04/25 12:54:20;;;;;;;;;;;18.50;59.90;;;;;;6156836;23;19939;-96
2023/04/25 12:56:46;;;;;;;;;;;18.20;59.60;;;;;;6157226;23;19904;-96
2023/04/25 12:59:11;;;;;;;;;;;17.90;60.40;;;;;;6156893;23;19987;-96
2023/04/25 13:01:37;;;;;;;;;;;17.50;61.00;;;;;;6130978;23;20362;-96
2023/04/25 13:04:02;;;;;;;;;;;17.20;62.20;;;;;;6157281;23;20231;-96
2023/04/25 13:06:30;;;;;;;;;;;17.00;61.80;;;;;;6157255;23;20315;-96
2023/04/25 13:08:56;;;;;;;;;;;16.80;64.40;;;;;;6157172;23;19904;-96
2023/04/25 13:11:21;;;;;;;;;;;16.60;64.70;;;;;;6156756;23;20233;-96
2023/04/25 13:13:47;;;;;;;;;;;16.50;65.80;;;;;;6130594;23;20323;-95
2023/04/25 13:16:15;;;;;;;;;;;16.40;66.20;;;;;;6156815;23;19909;-96
2023/04/25 13:18:41;;;;;;;;;;;16.40;66.40;;;;;;6130465;23;19924;-96
2023/04/25 13:21:07;;;;;;;;;;;16.40;66.10;;;;;;6157032;23;19908;-96
2023/04/25 13:23:32;;;;;;;;;;;16.50;65.90;;;;;;6130629;23;19905;-96
2023/04/25 13:25:58;;;;;;;;;;;16.30;66.50;;;;;;6157549;23;19987;-96
2023/04/25 13:28:24;;;;;;;;;;;16.30;66.50;;;;;;6157150;23;19959;-96
2023/04/25 13:30:51;;;;;;;;;;;16.40;66.80;;;;;;6157143;23;19904;-96
2023/04/25 13:33:17;;;;;;;;;;;16.30;66.60;;;;;;6156543;23;20377;-96
2023/04/25 13:35:42;;;;;;;;;;;16.10;67.10;;;;;;6156872;23;19905;-95
2023/04/25 13:38:08;;;;;;;;;;;15.80;67.80;;;;;;6156222;23;20296;-96
2023/04/25 13:40:34;;;;;;;;;;;15.60;68.20;;;;;;6130231;23;20319;-96
2023/04/25 13:43:01;;;;;;;;;;;15.70;68.30;;;;;;6157298;23;20230;-96
2023/04/25 13:45:26;;;;;;;;;;;15.60;70.20;;;;;;6156812;23;19987;-96
2023/04/25 13:47:52;;;;;;;;;;;15.70;71.70;;;;;;6156903;23;19905;-96
2023/04/25 13:50:18;;;;;;;;;;;15.70;70.80;;;;;;6158031;23;19979;-96
2023/04/25 13:52:43;;;;;;;;;;;15.70;71.50;;;;;;6158909;23;19905;-96
2023/04/25 13:55:09;;;;;;;;;;;15.70;71.50;;;;;;6158505;23;19905;-96
2023/04/25 13:57:35;;;;;;;;;;;15.80;71.00;;;;;;6158760;23;20004;-96
2023/04/25 14:00:05;;;;;;;;;;;15.60;73.20;;;;;;6158782;23;19909;-96
2023/04/25 14:02:31;;;;;;;;;;;15.50;73.10;;;;;;6159278;23;20315;-96
2023/04/25 14:04:56;;;;;;;;;;;15.50;72.90;;;;;;6132463;23;19904;-96
2023/04/25 14:07:22;;;;;;;;;;;15.20;74.00;;;;;;6132267;23;20285;-96
2023/04/25 14:09:48;;;;;;;;;;;14.80;74.30;;;;;;6158963;23;19905;-96